Terminal Aerodrome Forecast
Issued by NWS Cleveland, OH

Home | Current Version | Previous Version | Graphics & Text | Print | Product List | Glossary Off
Versions: 1 2 3 4 5 6 7 8 9 10 11 12 13 14 15 16 17 18 19 20 21 22 23 24 25 26 27

563
FTUS41 KCLE 241720
TAFCLE
TAF
KCLE 241720Z 2418/2524 20020G30KT P6SM SCT045 BKN200
     FM250300 19014KT P6SM -SHRA VCTS SCT045CB BKN150
      TEMPO 2505/2508 26020G40KT 3SM TSRA BKN020CB
     FM250800 23015G25KT P6SM VCSH OVC025
     FM251200 23015G25KT P6SM OVC025
     FM251900 25010G15KT 6SM -SHSN OVC020=

USA.gov is the U.S. government's official web portal to all federal, state and local government web resources and services.